createdAt,value
2023-02-27T00:00:41.291Z,-32.02
2023-02-27T00:03:07.750Z,-32.02
2023-02-27T00:05:34.304Z,-32.13
2023-02-27T00:08:00.789Z,-32.03
2023-02-27T00:10:27.223Z,-31.99
2023-02-27T00:12:53.795Z,-31.97
2023-02-27T00:15:20.623Z,-32.09
2023-02-27T00:17:47.227Z,-32.07
2023-02-27T00:20:16.025Z,-32.06
2023-02-27T00:22:43.156Z,-32.16
2023-02-27T00:25:09.879Z,-32.18
2023-02-27T00:27:37.075Z,-32.26
2023-02-27T00:30:05.473Z,-32.17
2023-02-27T00:32:31.993Z,-32.28
2023-02-27T00:34:58.676Z,-32.30
2023-02-27T00:37:25.143Z,-32.37
2023-02-27T00:39:51.625Z,-32.30
2023-02-27T00:42:18.067Z,-32.27
2023-02-27T00:44:44.659Z,-32.30
2023-02-27T00:47:11.167Z,-32.32
2023-02-27T00:49:37.647Z,-32.26
2023-02-27T00:52:04.334Z,-32.39
2023-02-27T00:54:30.809Z,-32.50
2023-02-27T00:56:57.563Z,-32.41
2023-02-27T00:59:24.058Z,-32.36
2023-02-27T01:01:50.501Z,-32.40
2023-02-27T01:04:17.130Z,-32.31
2023-02-27T01:06:43.764Z,-32.34
2023-02-27T01:09:10.226Z,-32.35
2023-02-27T01:11:36.858Z,-32.28
2023-02-27T01:14:03.600Z,-32.45
2023-02-27T01:16:30.235Z,-32.50
2023-02-27T01:18:57.358Z,-32.47
2023-02-27T01:21:24.576Z,-32.49
2023-02-27T01:23:51.194Z,-32.33
2023-02-27T01:26:17.784Z,-32.41
2023-02-27T01:28:44.303Z,-32.46
2023-02-27T01:31:10.880Z,-32.49
2023-02-27T01:33:37.466Z,-32.49
2023-02-27T01:36:04.319Z,-32.48
2023-02-27T01:38:31.013Z,-32.47
2023-02-27T01:40:57.617Z,-32.56
2023-02-27T01:43:24.363Z,-32.44
2023-02-27T01:45:51.212Z,-32.37
2023-02-27T01:48:36.133Z,-32.50
2023-02-27T01:51:08.985Z,-32.53
2023-02-27T01:53:37.568Z,-32.37
2023-02-27T01:56:15.276Z,-32.49
2023-02-27T01:58:42.751Z,-32.55
2023-02-27T02:01:09.493Z,-32.60
2023-02-27T02:03:38.581Z,-32.51
2023-02-27T02:06:07.231Z,-32.53
2023-02-27T02:08:40.026Z,-32.55
2023-02-27T02:11:07.598Z,-32.78
2023-02-27T02:13:34.943Z,-32.74
2023-02-27T02:16:10.389Z,-32.76
2023-02-27T02:19:02.305Z,-32.70
2023-02-27T02:21:50.383Z,-32.69
2023-02-27T02:24:34.994Z,-32.79
2023-02-27T02:27:03.784Z,-32.74
2023-02-27T02:29:59.241Z,-32.66
2023-02-27T02:32:41.128Z,-32.85
2023-02-27T02:35:19.477Z,-32.81
2023-02-27T02:38:03.872Z,-32.62
2023-02-27T02:40:48.118Z,-32.76
2023-02-27T02:43:25.193Z,-32.68
2023-02-27T02:46:14.824Z,-32.69
2023-02-27T02:48:48.898Z,-32.65
2023-02-27T02:51:18.782Z,-32.73
2023-02-27T02:54:14.466Z,-32.74
2023-02-27T02:56:44.015Z,-32.64
2023-02-27T02:59:38.109Z,-32.71
2023-02-27T03:02:08.385Z,-32.61
2023-02-27T03:04:44.582Z,-32.78
2023-02-27T03:07:22.981Z,-32.79
2023-02-27T03:09:54.153Z,-32.68
2023-02-27T03:12:23.998Z,-32.59
2023-02-27T03:14:55.161Z,-32.61
2023-02-27T03:17:47.364Z,-32.57
2023-02-27T03:20:22.872Z,-32.57
2023-02-27T03:22:52.482Z,-32.62
2023-02-27T03:25:19.962Z,-32.58
2023-02-27T03:27:54.747Z,-32.59
2023-02-27T03:30:27.149Z,-32.66
2023-02-27T03:32:57.645Z,-32.67
2023-02-27T03:35:30.916Z,-32.56
2023-02-27T03:38:08.964Z,-32.64
2023-02-27T03:40:39.044Z,-32.89
2023-02-27T03:43:21.669Z,-32.82
2023-02-27T03:45:59.961Z,-32.83
2023-02-27T03:48:26.813Z,-32.79
2023-02-27T03:50:53.326Z,-32.83
2023-02-27T03:53:34.088Z,-32.79
2023-02-27T03:56:01.549Z,-32.79
2023-02-27T03:58:28.224Z,-32.85
2023-02-27T04:00:55.311Z,-32.79
2023-02-27T04:03:22.088Z,-32.80
2023-02-27T04:05:48.559Z,-32.78
2023-02-27T04:08:37.165Z,-32.78
2023-02-27T04:11:32.976Z,-32.72
2023-02-27T04:14:17.901Z,-32.75
2023-02-27T04:17:07.025Z,-32.73
2023-02-27T04:19:36.521Z,-32.90
2023-02-27T04:22:37.845Z,-32.91
2023-02-27T04:25:04.352Z,-32.94
2023-02-27T04:27:48.504Z,-32.76
2023-02-27T04:30:26.367Z,-32.79
2023-02-27T04:32:58.947Z,-32.87
2023-02-27T04:35:43.504Z,-32.90
2023-02-27T04:38:19.472Z,-32.78
2023-02-27T04:41:08.367Z,-32.74
2023-02-27T04:43:35.942Z,-32.73
2023-02-27T04:46:02.881Z,-32.77
2023-02-27T04:48:34.348Z,-32.82
2023-02-27T04:51:08.823Z,-32.74
2023-02-27T04:53:50.271Z,-32.80
2023-02-27T04:56:21.827Z,-32.80
2023-02-27T04:58:51.863Z,-32.83
2023-02-27T05:01:22.971Z,-32.68
2023-02-27T05:03:52.198Z,-32.64
2023-02-27T05:06:22.016Z,-32.68
2023-02-27T05:08:53.298Z,-32.73
2023-02-27T05:11:34.026Z,-32.72
2023-02-27T05:14:06.818Z,-32.72
2023-02-27T05:16:39.747Z,-32.87
2023-02-27T05:19:06.599Z,-32.97
2023-02-27T05:21:40.358Z,-33.04
2023-02-27T05:24:22.065Z,-33.11
2023-02-27T05:27:07.080Z,-33.00
2023-02-27T05:29:51.159Z,-32.92
2023-02-27T05:32:29.539Z,-33.04
2023-02-27T05:35:10.697Z,-33.05
2023-02-27T05:37:43.833Z,-32.99
2023-02-27T05:40:15.452Z,-33.05
2023-02-27T05:42:45.742Z,-32.94
2023-02-27T05:45:18.114Z,-32.98
2023-02-27T05:47:49.315Z,-32.98
2023-02-27T05:50:25.123Z,-32.95
2023-02-27T05:52:53.412Z,-33.05
2023-02-27T05:55:26.169Z,-32.84
2023-02-27T05:58:26.119Z,-32.95
2023-02-27T06:01:11.638Z,-32.92
2023-02-27T06:03:39.809Z,-32.92
2023-02-27T06:06:09.148Z,-32.85
2023-02-27T06:08:35.873Z,-32.84
2023-02-27T06:11:02.996Z,-32.83
2023-02-27T06:13:29.606Z,-32.86
2023-02-27T06:15:57.095Z,-32.93
2023-02-27T06:18:23.897Z,-32.87
2023-02-27T06:20:50.884Z,-32.99
2023-02-27T06:23:17.561Z,-32.90
2023-02-27T06:25:44.424Z,-32.91
2023-02-27T06:28:11.534Z,-32.78
2023-02-27T06:30:38.272Z,-32.68
2023-02-27T06:33:05.583Z,-32.68
2023-02-27T06:35:32.245Z,-32.61
2023-02-27T06:37:58.932Z,-32.47
2023-02-27T06:40:25.943Z,-32.50
2023-02-27T06:42:52.478Z,-32.30
2023-02-27T06:45:19.156Z,-32.37
2023-02-27T06:47:46.043Z,-32.38
2023-02-27T06:50:13.830Z,-32.47
2023-02-27T06:52:40.917Z,-32.48
2023-02-27T06:55:09.031Z,-32.42
2023-02-27T06:57:35.630Z,-32.19
2023-02-27T07:00:04.069Z,-32.13
2023-02-27T07:02:31.055Z,-32.02
2023-02-27T07:04:57.723Z,-32.35
2023-02-27T07:07:34.108Z,-32.30
2023-02-27T07:10:03.727Z,-32.06
2023-02-27T07:12:30.211Z,-32.01
2023-02-27T07:15:00.119Z,-32.20
2023-02-27T07:17:26.941Z,-32.44
2023-02-27T07:19:54.633Z,-32.40
2023-02-27T07:22:21.151Z,-32.56
2023-02-27T07:24:47.985Z,-32.35
2023-02-27T07:27:14.748Z,-32.32
2023-02-27T07:29:41.585Z,-32.47
2023-02-27T07:32:08.564Z,-32.45
2023-02-27T07:34:35.241Z,-32.45
2023-02-27T07:37:01.756Z,-32.58
2023-02-27T07:39:28.511Z,-32.55
2023-02-27T07:41:57.651Z,-32.38
2023-02-27T07:44:24.310Z,-32.36
2023-02-27T07:46:51.485Z,-32.34
2023-02-27T07:49:18.341Z,-32.26
2023-02-27T07:51:45.294Z,-32.26
2023-02-27T07:54:12.390Z,-32.35
2023-02-27T07:56:39.255Z,-31.64
2023-02-27T07:59:06.049Z,-30.65
2023-02-27T08:01:32.968Z,-27.77
2023-02-27T08:03:59.486Z,-24.10
2023-02-27T08:06:26.390Z,-21.21
2023-02-27T08:08:53.439Z,-19.46
2023-02-27T08:11:20.049Z,-17.14
2023-02-27T08:14:02.879Z,-17.08
2023-02-27T08:16:31.353Z,-16.42
2023-02-27T08:18:58.609Z,-13.51
2023-02-27T08:21:26.098Z,-12.13
2023-02-27T08:23:53.146Z,-14.22
2023-02-27T08:26:19.794Z,-14.16
2023-02-27T08:28:46.471Z,-16.72
2023-02-27T08:31:13.199Z,-18.09
2023-02-27T08:33:40.004Z,-18.73
2023-02-27T08:36:08.013Z,-17.88
2023-02-27T08:38:34.932Z,-18.43
2023-02-27T08:41:01.709Z,-17.55
2023-02-27T08:43:28.228Z,-18.05
2023-02-27T08:45:54.990Z,-21.53
2023-02-27T08:48:24.358Z,-22.32
2023-02-27T08:50:51.663Z,-19.74
2023-02-27T11:37:30.863Z,-31.32
2023-02-27T11:40:13.688Z,-31.16
2023-02-27T11:42:50.107Z,-31.05
2023-02-27T11:46:17.039Z,-30.99
2023-02-27T11:48:47.746Z,-30.75
2023-02-27T11:51:37.294Z,-31.06
2023-02-27T11:54:38.920Z,-31.36
2023-02-27T11:57:14.840Z,-31.36
2023-02-27T12:00:19.873Z,-31.43
2023-02-27T12:03:10.631Z,-31.36
2023-02-27T12:05:44.799Z,-31.14
2023-02-27T12:08:19.850Z,-31.21
2023-02-27T12:11:12.463Z,-31.39
2023-02-27T12:13:43.152Z,-31.53
2023-02-27T12:16:32.306Z,-31.54
2023-02-27T12:19:11.185Z,-31.69
2023-02-27T12:21:41.238Z,-31.55
2023-02-27T12:24:32.584Z,-31.49
2023-02-27T12:27:17.351Z,-31.65
2023-02-27T12:29:57.379Z,-31.78
2023-02-27T12:32:31.191Z,-31.84
2023-02-27T12:35:17.279Z,-31.84
2023-02-27T12:37:43.849Z,-31.76
2023-02-27T12:40:16.836Z,-31.91
2023-02-27T12:42:57.639Z,-31.87
2023-02-27T12:46:07.179Z,-31.71
2023-02-27T12:48:52.477Z,-31.61
2023-02-27T12:51:38.945Z,-31.78
2023-02-27T12:54:15.975Z,-31.76
2023-02-27T12:56:45.655Z,-31.71
2023-02-27T12:59:51.688Z,-31.84
2023-02-27T13:02:40.159Z,-31.99
2023-02-27T13:05:22.705Z,-32.24
2023-02-27T13:07:54.177Z,-32.17
2023-02-27T13:10:53.067Z,-32.09
2023-02-27T13:13:27.541Z,-31.82
2023-02-27T13:16:15.829Z,-31.83
2023-02-27T13:18:55.717Z,-31.81
2023-02-27T13:21:29.372Z,-31.77
2023-02-27T13:24:16.362Z,-31.72
2023-02-27T13:26:47.164Z,-31.48
2023-02-27T13:29:15.625Z,-31.51
2023-02-27T13:31:46.998Z,-31.45
2023-02-27T13:34:40.159Z,-31.38
2023-02-27T13:37:08.801Z,-31.34
2023-02-27T13:39:45.660Z,-31.62
2023-02-27T13:42:27.674Z,-31.75
2023-02-27T13:44:58.308Z,-31.76
2023-02-27T13:47:30.709Z,-31.73
2023-02-27T13:49:59.525Z,-32.06
2023-02-27T13:52:30.040Z,-32.17
2023-02-27T13:55:06.270Z,-32.34
2023-02-27T13:57:38.343Z,-32.36
2023-02-27T14:00:26.397Z,-32.32
2023-02-27T14:03:04.853Z,-32.29
2023-02-27T14:05:40.251Z,-32.22
2023-02-27T14:08:12.642Z,-32.13
2023-02-27T14:10:41.758Z,-32.07
2023-02-27T14:13:43.145Z,-32.21
2023-02-27T14:16:11.343Z,-32.24
2023-02-27T14:18:55.327Z,-32.07
2023-02-27T14:21:54.331Z,-32.25
2023-02-27T14:24:24.907Z,-32.28
2023-02-27T14:26:52.663Z,-32.33
2023-02-27T14:29:31.199Z,-32.40
2023-02-27T14:32:00.913Z,-32.35
2023-02-27T14:34:27.905Z,-32.49
2023-02-27T14:36:57.579Z,-32.52
2023-02-27T14:39:30.926Z,-32.52
2023-02-27T14:42:03.577Z,-32.45
2023-02-27T14:44:38.223Z,-32.41
2023-02-27T14:47:35.548Z,-32.43
2023-02-27T14:50:08.023Z,-32.38
2023-02-27T14:52:43.013Z,-32.42
2023-02-27T14:55:19.107Z,-32.42
2023-02-27T14:58:01.743Z,-32.31
2023-02-27T15:00:52.621Z,-32.18
2023-02-27T15:03:30.183Z,-32.28
2023-02-27T15:06:01.193Z,-32.45
2023-02-27T15:08:39.766Z,-32.51
2023-02-27T15:11:06.818Z,-32.60
2023-02-27T15:13:37.166Z,-32.55
2023-02-27T15:16:20.784Z,-32.58
2023-02-27T15:18:50.844Z,-32.53
2023-02-27T15:21:20.396Z,-32.47
2023-02-27T15:24:00.254Z,-32.38
2023-02-27T15:26:30.132Z,-32.41
2023-02-27T15:28:59.798Z,-32.45
2023-02-27T15:31:30.183Z,-32.50
2023-02-27T15:34:01.075Z,-32.47
2023-02-27T15:36:35.208Z,-32.45
2023-02-27T15:39:22.533Z,-32.45
2023-02-27T15:41:56.071Z,-32.48
2023-02-27T15:44:43.276Z,-32.39
2023-02-27T15:47:12.854Z,-32.55
2023-02-27T15:49:39.714Z,-32.72
2023-02-27T15:52:13.905Z,-32.78
2023-02-27T15:54:47.655Z,-32.73
2023-02-27T15:57:14.718Z,-32.87
2023-02-27T15:59:42.856Z,-32.86
2023-02-27T16:02:24.651Z,-32.77
2023-02-27T16:04:51.442Z,-32.79
2023-02-27T16:07:21.119Z,-32.81
2023-02-27T16:09:58.041Z,-32.74
2023-02-27T16:12:30.646Z,-32.83
2023-02-27T16:15:24.751Z,-32.78
2023-02-27T16:18:04.359Z,-32.70
2023-02-27T16:20:34.105Z,-32.61
2023-02-27T16:23:21.764Z,-32.60
2023-02-27T16:26:28.190Z,-32.71
2023-02-27T16:29:03.707Z,-32.76
2023-02-27T16:31:32.736Z,-32.71
2023-02-27T16:34:45.796Z,-32.84
2023-02-27T16:37:24.151Z,-32.84
2023-02-27T16:39:52.136Z,-32.95
2023-02-27T16:42:18.740Z,-32.98
2023-02-27T16:44:45.393Z,-32.94
2023-02-27T16:47:12.766Z,-33.03
2023-02-27T16:49:40.473Z,-32.91
2023-02-27T16:52:09.636Z,-32.93
2023-02-27T16:54:36.835Z,-33.01
2023-02-27T16:57:03.979Z,-33.03
2023-02-27T16:59:37.664Z,-33.01
2023-02-27T17:02:06.838Z,-32.90
2023-02-27T17:04:33.423Z,-32.87
2023-02-27T17:07:01.770Z,-32.79
2023-02-27T17:09:29.255Z,-32.88
2023-02-27T17:11:59.840Z,-33.03
2023-02-27T17:14:26.628Z,-33.04
2023-02-27T17:16:53.216Z,-33.00
2023-02-27T17:19:21.507Z,-33.03
2023-02-27T17:21:48.721Z,-32.96
2023-02-27T17:24:15.247Z,-33.10
2023-02-27T17:26:41.760Z,-33.12
2023-02-27T17:29:09.862Z,-33.06
2023-02-27T17:31:37.070Z,-33.01
2023-02-27T17:34:04.695Z,-32.98
2023-02-27T17:36:31.380Z,-32.99
2023-02-27T17:39:00.581Z,-32.94
2023-02-27T17:41:28.203Z,-32.95
2023-02-27T17:43:58.048Z,-33.08
2023-02-27T17:46:25.931Z,-33.10
2023-02-27T17:48:54.786Z,-33.13
2023-02-27T17:51:21.311Z,-33.00
2023-02-27T17:53:48.240Z,-33.02
2023-02-27T17:56:14.811Z,-33.07
2023-02-27T17:58:45.443Z,-33.10
2023-02-27T18:01:15.165Z,-33.16
2023-02-27T18:03:41.733Z,-33.16
2023-02-27T18:06:08.918Z,-33.24
2023-02-27T18:08:35.480Z,-33.21
2023-02-27T18:11:02.311Z,-33.31
2023-02-27T18:13:28.812Z,-33.38
2023-02-27T18:15:57.586Z,-33.27
2023-02-27T18:18:24.344Z,-33.26
2023-02-27T18:21:02.652Z,-33.31
2023-02-27T18:23:29.269Z,-33.28
2023-02-27T18:25:57.821Z,-33.38
2023-02-27T18:28:24.496Z,-33.32
2023-02-27T18:30:51.437Z,-33.26
2023-02-27T18:33:19.575Z,-33.18
2023-02-27T18:35:47.383Z,-33.15
2023-02-27T18:38:14.541Z,-33.12
2023-02-27T18:40:42.649Z,-33.10
2023-02-27T18:43:10.807Z,-33.16
2023-02-27T18:45:38.042Z,-33.31
2023-02-27T18:48:04.754Z,-33.22
2023-02-27T18:50:31.429Z,-33.27
2023-02-27T18:52:59.220Z,-33.19
2023-02-27T18:55:26.346Z,-33.23
2023-02-27T18:57:53.243Z,-33.26
2023-02-27T19:00:24.197Z,-33.36
2023-02-27T19:02:51.086Z,-33.38
2023-02-27T19:05:18.555Z,-33.39
2023-02-27T19:07:45.600Z,-33.17
2023-02-27T19:10:13.041Z,-33.20
2023-02-27T19:12:40.062Z,-33.23
2023-02-27T19:15:09.358Z,-33.33
2023-02-27T19:17:36.199Z,-33.30
2023-02-27T19:20:02.852Z,-33.35
2023-02-27T19:22:30.465Z,-33.24
2023-02-27T19:25:00.571Z,-33.26
2023-02-27T19:27:27.260Z,-33.24
2023-02-27T19:29:54.373Z,-33.21
2023-02-27T19:32:21.662Z,-33.16
2023-02-27T19:34:48.467Z,-33.15
2023-02-27T19:37:16.776Z,-33.13
2023-02-27T19:39:43.517Z,-33.26
2023-02-27T19:42:10.818Z,-33.15
2023-02-27T19:44:37.650Z,-33.20
2023-02-27T19:47:04.626Z,-33.24
2023-02-27T19:49:31.447Z,-33.20
2023-02-27T19:51:59.125Z,-33.21
2023-02-27T19:54:25.719Z,-33.28
2023-02-27T19:56:54.405Z,-33.18
2023-02-27T19:59:23.827Z,-33.17
2023-02-27T20:01:50.890Z,-33.12
2023-02-27T20:04:20.836Z,-33.11
2023-02-27T20:06:49.856Z,-33.20
2023-02-27T20:09:17.796Z,-33.26
2023-02-27T20:11:53.513Z,-33.26
2023-02-27T20:14:20.240Z,-33.33
2023-02-27T20:16:46.871Z,-33.31
2023-02-27T20:19:15.863Z,-33.34
2023-02-27T20:21:51.926Z,-33.47
2023-02-27T20:24:19.168Z,-33.51
2023-02-27T20:26:50.422Z,-33.38
2023-02-27T20:29:20.059Z,-33.46
2023-02-27T20:31:49.255Z,-33.42
2023-02-27T20:34:22.014Z,-33.60
2023-02-27T20:36:54.235Z,-33.61
2023-02-27T20:39:21.369Z,-33.57
2023-02-27T20:41:48.429Z,-33.52
2023-02-27T20:44:15.718Z,-33.59
2023-02-27T20:46:43.866Z,-33.63
2023-02-27T20:49:12.603Z,-33.62
2023-02-27T20:51:39.602Z,-33.78
2023-02-27T20:54:09.090Z,-33.75
2023-02-27T20:56:38.295Z,-33.83
2023-02-27T20:59:06.242Z,-33.88
2023-02-27T21:01:33.303Z,-33.89
2023-02-27T21:04:00.300Z,-33.85
2023-02-27T21:06:27.466Z,-33.81
2023-02-27T21:08:56.663Z,-33.71
2023-02-27T21:11:29.047Z,-33.82
2023-02-27T21:13:57.527Z,-33.87
2023-02-27T21:16:25.622Z,-34.02
2023-02-27T21:18:53.489Z,-33.95
2023-02-27T21:21:28.187Z,-33.93
2023-02-27T21:23:55.379Z,-33.88
2023-02-27T21:26:28.569Z,-33.90
2023-02-27T21:29:00.418Z,-33.97
2023-02-27T21:31:29.646Z,-34.05
2023-02-27T21:33:58.086Z,-34.07
2023-02-27T21:36:30.140Z,-34.05
2023-02-27T21:39:00.925Z,-34.09
2023-02-27T21:41:28.093Z,-34.07
2023-02-27T21:43:59.310Z,-34.10
2023-02-27T21:46:26.079Z,-34.02
2023-02-27T21:48:52.869Z,-34.04
2023-02-27T21:51:36.811Z,-33.99
2023-02-27T21:54:05.309Z,-34.11
2023-02-27T21:56:31.827Z,-34.23
2023-02-27T21:59:01.236Z,-34.04
2023-02-27T22:01:28.141Z,-34.08
2023-02-27T22:03:54.971Z,-34.12
2023-02-27T22:06:23.127Z,-34.12
2023-02-27T22:08:56.200Z,-34.18
2023-02-27T22:11:23.344Z,-34.25
2023-02-27T22:13:49.892Z,-34.31
2023-02-27T22:16:16.524Z,-34.33
2023-02-27T22:18:43.118Z,-34.26
2023-02-27T22:21:16.655Z,-34.29
2023-02-27T22:23:44.189Z,-34.45
2023-02-27T22:26:16.060Z,-34.43
2023-02-27T22:28:42.551Z,-34.40
2023-02-27T22:31:10.144Z,-34.40
2023-02-27T22:33:37.426Z,-34.43
2023-02-27T22:36:13.000Z,-34.48
2023-02-27T22:38:39.794Z,-34.52
2023-02-27T22:41:09.164Z,-34.74
2023-02-27T22:43:38.204Z,-34.65
2023-02-27T22:46:04.973Z,-34.66
2023-02-27T22:48:31.900Z,-34.69
2023-02-27T22:51:03.343Z,-34.70
2023-02-27T22:53:32.956Z,-34.76
2023-02-27T22:55:59.676Z,-34.88
2023-02-27T22:58:26.241Z,-34.84
2023-02-27T23:00:53.562Z,-34.88
2023-02-27T23:03:20.130Z,-35.02
2023-02-27T23:05:50.192Z,-35.19
2023-02-27T23:08:16.862Z,-35.08
2023-02-27T23:10:43.602Z,-35.00
2023-02-27T23:13:11.036Z,-35.11
2023-02-27T23:15:38.624Z,-35.18
2023-02-27T23:18:05.643Z,-35.08
2023-02-27T23:20:32.403Z,-35.05
2023-02-27T23:22:59.050Z,-35.21
2023-02-27T23:25:25.529Z,-35.13
2023-02-27T23:27:52.017Z,-35.09
2023-02-27T23:30:18.503Z,-35.14
2023-02-27T23:32:45.709Z,-35.09
2023-02-27T23:35:13.200Z,-35.14
2023-02-27T23:37:39.798Z,-35.31
2023-02-27T23:40:07.194Z,-35.27
2023-02-27T23:42:33.660Z,-35.28
2023-02-27T23:45:00.235Z,-35.37
2023-02-27T23:47:42.873Z,-35.37
2023-02-27T23:50:10.464Z,-35.44
2023-02-27T23:52:37.008Z,-35.32
2023-02-27T23:55:04.510Z,-35.36
2023-02-27T23:57:32.039Z,-35.37
2023-02-27T23:59:58.511Z,-35.43
